sensor_id;sensor_type;location;lat;lon;timestamp;P1;durP1;ratioP1;P2;durP2;ratioP2
74245;SDS011;62601;51.044;13.788;2023-10-13T00:01:10;9.40;;;6.60;;
74245;SDS011;62601;51.044;13.788;2023-10-13T00:03:30;10.20;;;7.63;;
74245;SDS011;62601;51.044;13.788;2023-10-13T00:05:50;9.47;;;6.00;;
74245;SDS011;62601;51.044;13.788;2023-10-13T00:08:11;11.23;;;7.10;;
74245;SDS011;62601;51.044;13.788;2023-10-13T00:10:31;7.27;;;6.00;;
74245;SDS011;62601;51.044;13.788;2023-10-13T00:12:52;12.20;;;6.93;;
74245;SDS011;62601;51.044;13.788;2023-10-13T00:15:12;7.63;;;6.77;;
74245;SDS011;62601;51.044;13.788;2023-10-13T00:17:32;12.77;;;6.40;;
74245;SDS011;62601;51.044;13.788;2023-10-13T00:19:52;8.97;;;7.07;;
74245;SDS011;62601;51.044;13.788;2023-10-13T00:22:13;9.57;;;6.63;;
74245;SDS011;62601;51.044;13.788;2023-10-13T00:24:33;10.50;;;7.80;;
74245;SDS011;62601;51.044;13.788;2023-10-13T00:26:53;8.67;;;6.77;;
74245;SDS011;62601;51.044;13.788;2023-10-13T00:29:13;9.80;;;6.20;;
74245;SDS011;62601;51.044;13.788;2023-10-13T00:31:37;8.87;;;6.80;;
74245;SDS011;62601;51.044;13.788;2023-10-13T00:33:57;10.00;;;6.03;;
74245;SDS011;62601;51.044;13.788;2023-10-13T00:36:17;10.80;;;7.00;;
74245;SDS011;62601;51.044;13.788;2023-10-13T00:38:37;10.93;;;6.67;;
74245;SDS011;62601;51.044;13.788;2023-10-13T00:40:57;7.27;;;6.13;;
74245;SDS011;62601;51.044;13.788;2023-10-13T00:43:18;7.33;;;6.20;;
74245;SDS011;62601;51.044;13.788;2023-10-13T00:45:39;9.30;;;7.13;;
74245;SDS011;62601;51.044;13.788;2023-10-13T00:47:59;10.17;;;6.57;;
74245;SDS011;62601;51.044;13.788;2023-10-13T00:50:19;7.90;;;6.50;;
74245;SDS011;62601;51.044;13.788;2023-10-13T00:52:39;8.50;;;6.63;;
74245;SDS011;62601;51.044;13.788;2023-10-13T00:55:00;8.90;;;6.27;;
74245;SDS011;62601;51.044;13.788;2023-10-13T00:57:20;7.70;;;6.90;;
74245;SDS011;62601;51.044;13.788;2023-10-13T00:59:41;13.67;;;7.07;;
74245;SDS011;62601;51.044;13.788;2023-10-13T01:02:01;10.93;;;6.40;;
74245;SDS011;62601;51.044;13.788;2023-10-13T01:04:21;9.43;;;5.30;;
74245;SDS011;62601;51.044;13.788;2023-10-13T01:06:41;8.47;;;6.70;;
74245;SDS011;62601;51.044;13.788;2023-10-13T01:09:08;11.97;;;6.33;;
74245;SDS011;62601;51.044;13.788;2023-10-13T01:11:28;9.23;;;6.10;;
74245;SDS011;62601;51.044;13.788;2023-10-13T01:13:49;9.07;;;6.13;;
74245;SDS011;62601;51.044;13.788;2023-10-13T01:16:09;9.80;;;6.50;;
74245;SDS011;62601;51.044;13.788;2023-10-13T01:18:29;6.90;;;5.80;;
74245;SDS011;62601;51.044;13.788;2023-10-13T01:20:49;9.83;;;6.40;;
74245;SDS011;62601;51.044;13.788;2023-10-13T01:23:10;12.83;;;6.50;;
74245;SDS011;62601;51.044;13.788;2023-10-13T01:25:31;7.47;;;6.67;;
74245;SDS011;62601;51.044;13.788;2023-10-13T01:27:51;8.80;;;7.30;;
74245;SDS011;62601;51.044;13.788;2023-10-13T01:30:11;10.33;;;6.80;;
74245;SDS011;62601;51.044;13.788;2023-10-13T01:32:32;9.60;;;6.80;;
74245;SDS011;62601;51.044;13.788;2023-10-13T01:34:52;12.40;;;6.37;;
74245;SDS011;62601;51.044;13.788;2023-10-13T01:37:12;16.30;;;6.67;;
74245;SDS011;62601;51.044;13.788;2023-10-13T01:39:32;9.90;;;5.50;;
74245;SDS011;62601;51.044;13.788;2023-10-13T01:41:52;11.20;;;5.93;;
74245;SDS011;62601;51.044;13.788;2023-10-13T01:44:16;9.50;;;7.03;;
74245;SDS011;62601;51.044;13.788;2023-10-13T01:46:36;11.70;;;6.03;;
74245;SDS011;62601;51.044;13.788;2023-10-13T01:48:56;9.50;;;6.67;;
74245;SDS011;62601;51.044;13.788;2023-10-13T01:51:16;7.47;;;5.67;;
74245;SDS011;62601;51.044;13.788;2023-10-13T01:53:37;10.50;;;6.67;;
74245;SDS011;62601;51.044;13.788;2023-10-13T01:55:57;8.30;;;6.70;;
74245;SDS011;62601;51.044;13.788;2023-10-13T01:58:17;7.97;;;6.33;;
74245;SDS011;62601;51.044;13.788;2023-10-13T02:00:37;8.63;;;6.80;;
74245;SDS011;62601;51.044;13.788;2023-10-13T02:02:57;9.03;;;6.67;;
74245;SDS011;62601;51.044;13.788;2023-10-13T02:05:17;7.53;;;6.17;;
74245;SDS011;62601;51.044;13.788;2023-10-13T02:07:37;8.93;;;7.03;;
74245;SDS011;62601;51.044;13.788;2023-10-13T02:09:58;9.70;;;6.70;;
74245;SDS011;62601;51.044;13.788;2023-10-13T02:12:18;8.53;;;6.30;;
74245;SDS011;62601;51.044;13.788;2023-10-13T02:14:38;9.90;;;6.90;;
74245;SDS011;62601;51.044;13.788;2023-10-13T02:16:58;7.97;;;6.40;;
74245;SDS011;62601;51.044;13.788;2023-10-13T02:19:18;8.57;;;6.43;;
74245;SDS011;62601;51.044;13.788;2023-10-13T02:21:38;10.53;;;6.30;;
74245;SDS011;62601;51.044;13.788;2023-10-13T02:23:58;9.00;;;6.90;;
74245;SDS011;62601;51.044;13.788;2023-10-13T02:26:18;8.70;;;6.50;;
74245;SDS011;62601;51.044;13.788;2023-10-13T02:28:39;10.90;;;6.43;;
74245;SDS011;62601;51.044;13.788;2023-10-13T02:31:01;11.83;;;6.80;;
74245;SDS011;62601;51.044;13.788;2023-10-13T02:33:21;8.33;;;6.20;;
74245;SDS011;62601;51.044;13.788;2023-10-13T02:35:41;6.87;;;6.27;;
74245;SDS011;62601;51.044;13.788;2023-10-13T02:38:02;9.33;;;6.73;;
74245;SDS011;62601;51.044;13.788;2023-10-13T02:40:22;7.13;;;6.43;;
74245;SDS011;62601;51.044;13.788;2023-10-13T02:42:42;12.20;;;6.60;;
74245;SDS011;62601;51.044;13.788;2023-10-13T02:45:02;9.37;;;6.63;;
74245;SDS011;62601;51.044;13.788;2023-10-13T02:47:22;13.37;;;6.67;;
74245;SDS011;62601;51.044;13.788;2023-10-13T02:49:42;8.07;;;6.87;;
74245;SDS011;62601;51.044;13.788;2023-10-13T02:52:02;8.10;;;6.57;;
74245;SDS011;62601;51.044;13.788;2023-10-13T02:54:23;8.40;;;5.57;;
74245;SDS011;62601;51.044;13.788;2023-10-13T02:56:43;7.23;;;6.40;;
74245;SDS011;62601;51.044;13.788;2023-10-13T02:59:03;8.83;;;5.77;;
74245;SDS011;62601;51.044;13.788;2023-10-13T03:01:23;10.17;;;7.10;;
74245;SDS011;62601;51.044;13.788;2023-10-13T03:03:44;10.10;;;6.00;;
74245;SDS011;62601;51.044;13.788;2023-10-13T03:06:04;7.50;;;6.43;;
74245;SDS011;62601;51.044;13.788;2023-10-13T03:08:25;7.23;;;6.17;;
74245;SDS011;62601;51.044;13.788;2023-10-13T03:10:45;8.27;;;6.20;;
74245;SDS011;62601;51.044;13.788;2023-10-13T03:13:05;10.93;;;6.10;;
74245;SDS011;62601;51.044;13.788;2023-10-13T03:15:25;8.00;;;6.23;;
74245;SDS011;62601;51.044;13.788;2023-10-13T03:17:45;12.70;;;6.73;;
74245;SDS011;62601;51.044;13.788;2023-10-13T03:20:06;6.70;;;5.93;;
74245;SDS011;62601;51.044;13.788;2023-10-13T03:22:26;6.87;;;5.93;;
74245;SDS011;62601;51.044;13.788;2023-10-13T03:24:46;9.03;;;7.07;;
74245;SDS011;62601;51.044;13.788;2023-10-13T03:27:06;7.43;;;5.77;;
74245;SDS011;62601;51.044;13.788;2023-10-13T03:29:26;7.07;;;5.77;;
74245;SDS011;62601;51.044;13.788;2023-10-13T03:31:46;9.70;;;5.70;;
74245;SDS011;62601;51.044;13.788;2023-10-13T03:34:06;8.83;;;6.37;;
74245;SDS011;62601;51.044;13.788;2023-10-13T03:36:27;8.07;;;6.70;;
74245;SDS011;62601;51.044;13.788;2023-10-13T03:38:47;8.23;;;6.73;;
74245;SDS011;62601;51.044;13.788;2023-10-13T03:41:07;8.10;;;5.67;;
74245;SDS011;62601;51.044;13.788;2023-10-13T03:43:27;8.43;;;6.70;;
74245;SDS011;62601;51.044;13.788;2023-10-13T03:45:48;6.70;;;5.87;;
74245;SDS011;62601;51.044;13.788;2023-10-13T03:48:12;8.23;;;6.53;;
74245;SDS011;62601;51.044;13.788;2023-10-13T03:50:33;8.00;;;6.07;;
74245;SDS011;62601;51.044;13.788;2023-10-13T03:52:53;10.80;;;6.73;;
74245;SDS011;62601;51.044;13.788;2023-10-13T03:55:13;7.07;;;6.37;;
74245;SDS011;62601;51.044;13.788;2023-10-13T03:57:33;8.73;;;6.20;;
74245;SDS011;62601;51.044;13.788;2023-10-13T03:59:53;7.23;;;6.50;;
74245;SDS011;62601;51.044;13.788;2023-10-13T04:02:13;6.80;;;6.10;;
74245;SDS011;62601;51.044;13.788;2023-10-13T04:04:33;8.60;;;6.03;;
74245;SDS011;62601;51.044;13.788;2023-10-13T04:06:53;6.87;;;6.17;;
74245;SDS011;62601;51.044;13.788;2023-10-13T04:09:14;6.57;;;5.90;;
74245;SDS011;62601;51.044;13.788;2023-10-13T04:11:34;9.90;;;5.87;;
74245;SDS011;62601;51.044;13.788;2023-10-13T04:13:54;7.47;;;6.67;;
74245;SDS011;62601;51.044;13.788;2023-10-13T04:16:14;8.57;;;7.00;;
74245;SDS011;62601;51.044;13.788;2023-10-13T04:18:34;9.30;;;7.20;;
74245;SDS011;62601;51.044;13.788;2023-10-13T04:20:54;6.57;;;5.87;;
74245;SDS011;62601;51.044;13.788;2023-10-13T04:23:14;8.13;;;5.80;;
74245;SDS011;62601;51.044;13.788;2023-10-13T04:25:34;8.80;;;5.90;;
74245;SDS011;62601;51.044;13.788;2023-10-13T04:27:55;9.23;;;5.80;;
74245;SDS011;62601;51.044;13.788;2023-10-13T04:30:16;7.73;;;6.40;;
74245;SDS011;62601;51.044;13.788;2023-10-13T04:32:36;12.80;;;6.90;;
74245;SDS011;62601;51.044;13.788;2023-10-13T04:34:56;9.73;;;6.97;;
74245;SDS011;62601;51.044;13.788;2023-10-13T04:37:17;7.60;;;6.30;;
74245;SDS011;62601;51.044;13.788;2023-10-13T04:39:37;8.50;;;6.33;;
74245;SDS011;62601;51.044;13.788;2023-10-13T04:41:57;7.90;;;6.53;;
74245;SDS011;62601;51.044;13.788;2023-10-13T04:44:17;9.17;;;5.83;;
74245;SDS011;62601;51.044;13.788;2023-10-13T04:46:37;9.00;;;6.50;;
74245;SDS011;62601;51.044;13.788;2023-10-13T04:48:57;7.43;;;6.30;;
74245;SDS011;62601;51.044;13.788;2023-10-13T04:51:17;10.33;;;6.80;;
74245;SDS011;62601;51.044;13.788;2023-10-13T04:53:37;8.80;;;6.17;;
74245;SDS011;62601;51.044;13.788;2023-10-13T04:55:57;7.27;;;5.50;;
74245;SDS011;62601;51.044;13.788;2023-10-13T04:58:18;8.07;;;6.40;;
74245;SDS011;62601;51.044;13.788;2023-10-13T05:00:38;6.90;;;5.43;;
74245;SDS011;62601;51.044;13.788;2023-10-13T05:02:58;11.47;;;6.00;;
74245;SDS011;62601;51.044;13.788;2023-10-13T05:05:18;9.30;;;6.00;;
74245;SDS011;62601;51.044;13.788;2023-10-13T05:07:38;9.17;;;7.37;;
74245;SDS011;62601;51.044;13.788;2023-10-13T05:09:58;12.73;;;6.17;;
74245;SDS011;62601;51.044;13.788;2023-10-13T05:12:18;6.60;;;6.00;;
74245;SDS011;62601;51.044;13.788;2023-10-13T05:14:39;8.10;;;5.90;;
74245;SDS011;62601;51.044;13.788;2023-10-13T05:16:59;8.43;;;5.53;;
74245;SDS011;62601;51.044;13.788;2023-10-13T05:19:19;8.80;;;5.80;;
74245;SDS011;62601;51.044;13.788;2023-10-13T05:21:39;6.70;;;5.70;;
74245;SDS011;62601;51.044;13.788;2023-10-13T05:23:59;8.03;;;6.20;;
74245;SDS011;62601;51.044;13.788;2023-10-13T05:26:19;9.93;;;6.40;;
74245;SDS011;62601;51.044;13.788;2023-10-13T05:28:39;6.27;;;5.67;;
74245;SDS011;62601;51.044;13.788;2023-10-13T05:30:59;7.00;;;6.13;;
74245;SDS011;62601;51.044;13.788;2023-10-13T05:33:19;7.50;;;5.53;;
74245;SDS011;62601;51.044;13.788;2023-10-13T05:35:39;6.97;;;5.63;;
74245;SDS011;62601;51.044;13.788;2023-10-13T05:38:00;9.70;;;5.67;;
74245;SDS011;62601;51.044;13.788;2023-10-13T05:40:20;6.20;;;5.53;;
74245;SDS011;62601;51.044;13.788;2023-10-13T05:42:41;6.80;;;5.97;;
74245;SDS011;62601;51.044;13.788;2023-10-13T05:45:02;8.90;;;5.80;;
74245;SDS011;62601;51.044;13.788;2023-10-13T05:47:24;6.63;;;5.70;;
74245;SDS011;62601;51.044;13.788;2023-10-13T05:49:45;7.13;;;6.53;;
74245;SDS011;62601;51.044;13.788;2023-10-13T05:52:06;9.13;;;5.60;;
74245;SDS011;62601;51.044;13.788;2023-10-13T05:54:28;6.50;;;5.77;;
74245;SDS011;62601;51.044;13.788;2023-10-13T05:56:50;5.30;;;4.80;;
74245;SDS011;62601;51.044;13.788;2023-10-13T05:59:11;7.27;;;5.20;;
74245;SDS011;62601;51.044;13.788;2023-10-13T06:01:33;7.03;;;4.80;;
74245;SDS011;62601;51.044;13.788;2023-10-13T06:03:54;7.27;;;6.47;;
74245;SDS011;62601;51.044;13.788;2023-10-13T06:06:16;7.53;;;4.90;;
74245;SDS011;62601;51.044;13.788;2023-10-13T06:08:37;7.20;;;5.80;;
74245;SDS011;62601;51.044;13.788;2023-10-13T06:11:02;5.43;;;4.90;;
74245;SDS011;62601;51.044;13.788;2023-10-13T06:13:23;8.40;;;4.93;;
74245;SDS011;62601;51.044;13.788;2023-10-13T06:15:45;8.27;;;5.87;;
74245;SDS011;62601;51.044;13.788;2023-10-13T06:18:07;4.77;;;4.33;;
74245;SDS011;62601;51.044;13.788;2023-10-13T06:20:28;5.60;;;4.67;;
74245;SDS011;62601;51.044;13.788;2023-10-13T06:22:52;6.47;;;3.97;;
74245;SDS011;62601;51.044;13.788;2023-10-13T06:25:16;5.93;;;4.73;;
74245;SDS011;62601;51.044;13.788;2023-10-13T06:27:38;7.87;;;5.17;;
74245;SDS011;62601;51.044;13.788;2023-10-13T06:29:58;6.20;;;4.63;;
74245;SDS011;62601;51.044;13.788;2023-10-13T06:32:20;7.07;;;4.97;;
74245;SDS011;62601;51.044;13.788;2023-10-13T06:34:42;6.50;;;4.60;;
74245;SDS011;62601;51.044;13.788;2023-10-13T06:37:04;6.07;;;5.47;;
74245;SDS011;62601;51.044;13.788;2023-10-13T06:39:25;8.20;;;5.07;;
74245;SDS011;62601;51.044;13.788;2023-10-13T06:41:47;7.00;;;5.10;;
74245;SDS011;62601;51.044;13.788;2023-10-13T06:44:08;9.73;;;6.60;;
74245;SDS011;62601;51.044;13.788;2023-10-13T06:46:29;12.03;;;6.13;;
74245;SDS011;62601;51.044;13.788;2023-10-13T06:48:51;7.10;;;6.40;;
74245;SDS011;62601;51.044;13.788;2023-10-13T06:51:11;8.30;;;6.93;;
74245;SDS011;62601;51.044;13.788;2023-10-13T06:53:32;9.47;;;8.33;;
74245;SDS011;62601;51.044;13.788;2023-10-13T06:55:53;9.97;;;8.63;;
74245;SDS011;62601;51.044;13.788;2023-10-13T06:58:15;10.63;;;8.40;;
74245;SDS011;62601;51.044;13.788;2023-10-13T07:00:36;11.27;;;9.07;;
74245;SDS011;62601;51.044;13.788;2023-10-13T07:02:56;12.23;;;9.83;;
74245;SDS011;62601;51.044;13.788;2023-10-13T07:05:18;13.30;;;9.70;;
74245;SDS011;62601;51.044;13.788;2023-10-13T07:07:39;10.43;;;9.33;;
74245;SDS011;62601;51.044;13.788;2023-10-13T07:10:00;13.80;;;10.60;;
74245;SDS011;62601;51.044;13.788;2023-10-13T07:12:22;11.70;;;10.50;;
74245;SDS011;62601;51.044;13.788;2023-10-13T07:14:45;14.23;;;11.30;;
74245;SDS011;62601;51.044;13.788;2023-10-13T07:17:06;11.93;;;10.47;;
74245;SDS011;62601;51.044;13.788;2023-10-13T07:19:26;12.60;;;11.30;;
74245;SDS011;62601;51.044;13.788;2023-10-13T07:21:47;13.47;;;12.07;;
74245;SDS011;62601;51.044;13.788;2023-10-13T07:24:07;14.97;;;12.10;;
74245;SDS011;62601;51.044;13.788;2023-10-13T07:26:27;13.23;;;11.83;;
74245;SDS011;62601;51.044;13.788;2023-10-13T07:28:47;14.40;;;12.00;;
74245;SDS011;62601;51.044;13.788;2023-10-13T07:31:07;16.70;;;13.50;;
74245;SDS011;62601;51.044;13.788;2023-10-13T07:33:27;16.87;;;13.63;;
74245;SDS011;62601;51.044;13.788;2023-10-13T07:36:09;15.37;;;13.23;;
74245;SDS011;62601;51.044;13.788;2023-10-13T07:38:28;15.80;;;12.50;;
74245;SDS011;62601;51.044;13.788;2023-10-13T07:40:48;15.17;;;13.57;;
74245;SDS011;62601;51.044;13.788;2023-10-13T07:43:08;15.07;;;13.30;;
74245;SDS011;62601;51.044;13.788;2023-10-13T07:45:28;15.00;;;13.40;;
74245;SDS011;62601;51.044;13.788;2023-10-13T07:47:48;14.80;;;13.20;;
74245;SDS011;62601;51.044;13.788;2023-10-13T07:50:08;15.80;;;13.40;;
74245;SDS011;62601;51.044;13.788;2023-10-13T07:52:28;19.00;;;15.00;;
74245;SDS011;62601;51.044;13.788;2023-10-13T07:54:50;22.10;;;16.90;;
74245;SDS011;62601;51.044;13.788;2023-10-13T07:57:10;15.37;;;12.97;;
74245;SDS011;62601;51.044;13.788;2023-10-13T07:59:30;17.30;;;15.50;;
74245;SDS011;62601;51.044;13.788;2023-10-13T08:01:50;18.47;;;16.30;;
74245;SDS011;62601;51.044;13.788;2023-10-13T08:04:10;16.70;;;14.10;;
74245;SDS011;62601;51.044;13.788;2023-10-13T08:06:30;18.20;;;14.30;;
74245;SDS011;62601;51.044;13.788;2023-10-13T08:08:50;17.97;;;13.90;;
74245;SDS011;62601;51.044;13.788;2023-10-13T08:11:11;12.97;;;11.60;;
74245;SDS011;62601;51.044;13.788;2023-10-13T08:13:32;16.90;;;15.13;;
74245;SDS011;62601;51.044;13.788;2023-10-13T08:15:52;14.20;;;12.70;;
74245;SDS011;62601;51.044;13.788;2023-10-13T08:18:12;13.37;;;11.97;;
74245;SDS011;62601;51.044;13.788;2023-10-13T08:20:32;12.50;;;11.20;;
74245;SDS011;62601;51.044;13.788;2023-10-13T08:22:52;13.37;;;12.00;;
74245;SDS011;62601;51.044;13.788;2023-10-13T08:25:12;11.53;;;10.33;;
74245;SDS011;62601;51.044;13.788;2023-10-13T08:27:32;10.20;;;9.23;;
74245;SDS011;62601;51.044;13.788;2023-10-13T08:29:53;11.87;;;10.17;;
74245;SDS011;62601;51.044;13.788;2023-10-13T08:32:13;10.30;;;9.40;;
74245;SDS011;62601;51.044;13.788;2023-10-13T08:34:33;12.20;;;9.50;;
74245;SDS011;62601;51.044;13.788;2023-10-13T08:36:54;11.77;;;8.90;;
74245;SDS011;62601;51.044;13.788;2023-10-13T08:39:14;10.30;;;8.53;;
74245;SDS011;62601;51.044;13.788;2023-10-13T08:41:34;10.80;;;8.87;;
74245;SDS011;62601;51.044;13.788;2023-10-13T08:43:54;7.33;;;6.63;;
74245;SDS011;62601;51.044;13.788;2023-10-13T08:46:17;7.03;;;5.60;;
74245;SDS011;62601;51.044;13.788;2023-10-13T08:48:37;7.20;;;5.80;;
74245;SDS011;62601;51.044;13.788;2023-10-13T08:50:57;7.07;;;5.60;;
74245;SDS011;62601;51.044;13.788;2023-10-13T08:53:27;5.43;;;4.93;;
74245;SDS011;62601;51.044;13.788;2023-10-13T08:55:47;5.77;;;5.00;;
74245;SDS011;62601;51.044;13.788;2023-10-13T08:58:07;6.10;;;5.20;;
74245;SDS011;62601;51.044;13.788;2023-10-13T09:00:27;5.77;;;4.10;;
74245;SDS011;62601;51.044;13.788;2023-10-13T09:02:48;5.13;;;4.70;;
74245;SDS011;62601;51.044;13.788;2023-10-13T09:05:09;8.30;;;4.40;;
74245;SDS011;62601;51.044;13.788;2023-10-13T09:07:29;4.67;;;4.27;;
74245;SDS011;62601;51.044;13.788;2023-10-13T09:09:49;5.87;;;4.57;;
74245;SDS011;62601;51.044;13.788;2023-10-13T09:14:33;4.20;;;3.77;;
74245;SDS011;62601;51.044;13.788;2023-10-13T09:17:00;5.20;;;4.70;;
74245;SDS011;62601;51.044;13.788;2023-10-13T09:19:21;3.60;;;3.30;;
74245;SDS011;62601;51.044;13.788;2023-10-13T09:21:41;3.00;;;2.70;;
74245;SDS011;62601;51.044;13.788;2023-10-13T09:24:01;2.93;;;2.63;;
74245;SDS011;62601;51.044;13.788;2023-10-13T09:26:21;2.87;;;2.53;;
74245;SDS011;62601;51.044;13.788;2023-10-13T09:28:41;2.57;;;2.37;;
74245;SDS011;62601;51.044;13.788;2023-10-13T09:31:02;2.80;;;2.60;;
74245;SDS011;62601;51.044;13.788;2023-10-13T09:33:23;4.60;;;2.60;;
74245;SDS011;62601;51.044;13.788;2023-10-13T09:35:43;3.63;;;2.97;;
74245;SDS011;62601;51.044;13.788;2023-10-13T09:38:04;2.70;;;2.50;;
74245;SDS011;62601;51.044;13.788;2023-10-13T09:40:24;11.33;;;2.40;;
74245;SDS011;62601;51.044;13.788;2023-10-13T09:42:47;2.70;;;2.43;;
74245;SDS011;62601;51.044;13.788;2023-10-13T09:45:08;4.30;;;3.03;;
74245;SDS011;62601;51.044;13.788;2023-10-13T09:47:28;3.80;;;3.23;;
74245;SDS011;62601;51.044;13.788;2023-10-13T09:49:49;4.47;;;4.07;;
74245;SDS011;62601;51.044;13.788;2023-10-13T09:52:12;4.33;;;4.03;;
74245;SDS011;62601;51.044;13.788;2023-10-13T09:54:35;6.07;;;5.40;;
74245;SDS011;62601;51.044;13.788;2023-10-13T09:57:00;7.43;;;5.07;;
74245;SDS011;62601;51.044;13.788;2023-10-13T09:59:29;6.90;;;5.07;;
74245;SDS011;62601;51.044;13.788;2023-10-13T10:01:52;6.47;;;5.87;;
74245;SDS011;62601;51.044;13.788;2023-10-13T10:04:14;8.53;;;7.20;;
74245;SDS011;62601;51.044;13.788;2023-10-13T10:06:34;8.77;;;7.93;;
74245;SDS011;62601;51.044;13.788;2023-10-13T10:09:07;11.30;;;10.20;;
74245;SDS011;62601;51.044;13.788;2023-10-13T10:16:21;12.87;;;10.60;;
74245;SDS011;62601;51.044;13.788;2023-10-13T10:18:47;12.30;;;10.90;;
74245;SDS011;62601;51.044;13.788;2023-10-13T10:21:07;13.33;;;11.90;;
74245;SDS011;62601;51.044;13.788;2023-10-13T10:23:27;13.10;;;11.80;;
74245;SDS011;62601;51.044;13.788;2023-10-13T10:25:48;13.80;;;12.13;;
74245;SDS011;62601;51.044;13.788;2023-10-13T10:28:08;13.90;;;11.60;;
74245;SDS011;62601;51.044;13.788;2023-10-13T10:30:29;12.70;;;11.40;;
74245;SDS011;62601;51.044;13.788;2023-10-13T10:32:53;15.50;;;13.00;;
74245;SDS011;62601;51.044;13.788;2023-10-13T10:35:13;13.90;;;12.10;;
74245;SDS011;62601;51.044;13.788;2023-10-13T10:37:34;15.63;;;13.23;;
74245;SDS011;62601;51.044;13.788;2023-10-13T10:39:54;14.33;;;12.47;;
74245;SDS011;62601;51.044;13.788;2023-10-13T10:42:14;12.50;;;10.40;;
74245;SDS011;62601;51.044;13.788;2023-10-13T10:44:40;11.93;;;10.07;;
74245;SDS011;62601;51.044;13.788;2023-10-13T10:47:12;12.13;;;10.67;;
74245;SDS011;62601;51.044;13.788;2023-10-13T10:49:36;10.00;;;7.93;;
74245;SDS011;62601;51.044;13.788;2023-10-13T10:52:00;15.63;;;8.93;;
74245;SDS011;62601;51.044;13.788;2023-10-13T10:54:20;11.70;;;5.80;;
74245;SDS011;62601;51.044;13.788;2023-10-13T10:56:40;8.57;;;5.83;;
74245;SDS011;62601;51.044;13.788;2023-10-13T10:59:02;7.93;;;4.30;;
74245;SDS011;62601;51.044;13.788;2023-10-13T11:01:23;7.50;;;3.70;;
74245;SDS011;62601;51.044;13.788;2023-10-13T11:03:43;4.53;;;3.70;;
74245;SDS011;62601;51.044;13.788;2023-10-13T11:06:12;5.43;;;3.17;;
74245;SDS011;62601;51.044;13.788;2023-10-13T11:08:33;4.60;;;3.43;;
74245;SDS011;62601;51.044;13.788;2023-10-13T11:10:53;4.50;;;3.33;;
74245;SDS011;62601;51.044;13.788;2023-10-13T11:13:13;5.23;;;4.33;;
74245;SDS011;62601;51.044;13.788;2023-10-13T11:15:40;6.90;;;3.60;;
74245;SDS011;62601;51.044;13.788;2023-10-13T11:18:00;6.40;;;3.90;;
74245;SDS011;62601;51.044;13.788;2023-10-13T11:20:21;7.03;;;4.20;;
74245;SDS011;62601;51.044;13.788;2023-10-13T11:22:41;4.17;;;3.40;;
74245;SDS011;62601;51.044;13.788;2023-10-13T11:25:07;10.07;;;4.00;;
74245;SDS011;62601;51.044;13.788;2023-10-13T11:27:31;8.40;;;4.27;;
74245;SDS011;62601;51.044;13.788;2023-10-13T11:29:51;9.53;;;3.90;;
74245;SDS011;62601;51.044;13.788;2023-10-13T11:32:11;7.17;;;3.90;;
74245;SDS011;62601;51.044;13.788;2023-10-13T11:34:31;7.00;;;3.70;;
74245;SDS011;62601;51.044;13.788;2023-10-13T11:36:52;11.90;;;4.50;;
74245;SDS011;62601;51.044;13.788;2023-10-13T11:39:12;6.93;;;4.13;;
74245;SDS011;62601;51.044;13.788;2023-10-13T11:41:32;7.73;;;4.13;;
74245;SDS011;62601;51.044;13.788;2023-10-13T11:43:52;9.63;;;4.40;;
74245;SDS011;62601;51.044;13.788;2023-10-13T11:46:13;10.30;;;4.10;;
74245;SDS011;62601;51.044;13.788;2023-10-13T11:48:34;11.53;;;5.00;;
74245;SDS011;62601;51.044;13.788;2023-10-13T11:50:55;10.87;;;7.53;;
74245;SDS011;62601;51.044;13.788;2023-10-13T11:53:15;9.73;;;5.93;;
74245;SDS011;62601;51.044;13.788;2023-10-13T11:55:36;9.23;;;7.73;;
74245;SDS011;62601;51.044;13.788;2023-10-13T11:57:56;8.60;;;7.60;;
74245;SDS011;62601;51.044;13.788;2023-10-13T12:00:16;8.53;;;7.40;;
74245;SDS011;62601;51.044;13.788;2023-10-13T12:02:42;15.67;;;8.77;;
74245;SDS011;62601;51.044;13.788;2023-10-13T12:05:02;10.20;;;7.17;;
74245;SDS011;62601;51.044;13.788;2023-10-13T12:07:22;12.23;;;7.93;;
74245;SDS011;62601;51.044;13.788;2023-10-13T12:09:43;10.90;;;7.20;;
74245;SDS011;62601;51.044;13.788;2023-10-13T12:12:03;9.47;;;6.70;;
74245;SDS011;62601;51.044;13.788;2023-10-13T12:14:24;10.73;;;7.07;;
74245;SDS011;62601;51.044;13.788;2023-10-13T12:16:44;10.13;;;6.40;;
74245;SDS011;62601;51.044;13.788;2023-10-13T12:19:04;9.50;;;7.07;;
74245;SDS011;62601;51.044;13.788;2023-10-13T12:21:24;13.13;;;7.40;;
74245;SDS011;62601;51.044;13.788;2023-10-13T12:23:44;13.67;;;9.03;;
74245;SDS011;62601;51.044;13.788;2023-10-13T12:26:04;8.93;;;8.00;;
74245;SDS011;62601;51.044;13.788;2023-10-13T12:28:24;8.73;;;7.60;;
74245;SDS011;62601;51.044;13.788;2023-10-13T12:30:45;10.70;;;7.70;;
74245;SDS011;62601;51.044;13.788;2023-10-13T12:33:05;9.57;;;7.87;;
74245;SDS011;62601;51.044;13.788;2023-10-13T12:35:25;10.87;;;8.53;;
74245;SDS011;62601;51.044;13.788;2023-10-13T12:37:45;10.50;;;7.33;;
74245;SDS011;62601;51.044;13.788;2023-10-13T12:40:06;10.60;;;8.97;;
74245;SDS011;62601;51.044;13.788;2023-10-13T12:42:26;12.50;;;8.17;;
74245;SDS011;62601;51.044;13.788;2023-10-13T12:44:47;9.80;;;8.60;;
74245;SDS011;62601;51.044;13.788;2023-10-13T12:47:07;11.23;;;8.80;;
74245;SDS011;62601;51.044;13.788;2023-10-13T12:49:27;11.23;;;9.37;;
74245;SDS011;62601;51.044;13.788;2023-10-13T12:51:48;17.00;;;13.77;;
74245;SDS011;62601;51.044;13.788;2023-10-13T12:54:08;9.10;;;8.17;;
74245;SDS011;62601;51.044;13.788;2023-10-13T12:56:28;13.27;;;9.00;;
74245;SDS011;62601;51.044;13.788;2023-10-13T12:58:48;10.40;;;9.27;;
74245;SDS011;62601;51.044;13.788;2023-10-13T13:01:09;12.00;;;8.83;;
74245;SDS011;62601;51.044;13.788;2023-10-13T13:03:29;13.13;;;8.93;;
74245;SDS011;62601;51.044;13.788;2023-10-13T13:05:49;11.27;;;8.77;;
74245;SDS011;62601;51.044;13.788;2023-10-13T13:08:10;11.87;;;8.50;;
74245;SDS011;62601;51.044;13.788;2023-10-13T13:10:30;11.57;;;8.17;;
74245;SDS011;62601;51.044;13.788;2023-10-13T13:12:50;12.43;;;7.97;;
74245;SDS011;62601;51.044;13.788;2023-10-13T13:15:10;11.97;;;7.43;;
74245;SDS011;62601;51.044;13.788;2023-10-13T13:17:31;13.40;;;7.23;;
74245;SDS011;62601;51.044;13.788;2023-10-13T13:19:51;10.03;;;7.87;;
74245;SDS011;62601;51.044;13.788;2023-10-13T13:22:11;11.37;;;7.77;;
74245;SDS011;62601;51.044;13.788;2023-10-13T13:24:32;11.30;;;8.30;;
74245;SDS011;62601;51.044;13.788;2023-10-13T13:26:52;8.80;;;6.00;;
74245;SDS011;62601;51.044;13.788;2023-10-13T13:29:13;8.60;;;7.43;;
74245;SDS011;62601;51.044;13.788;2023-10-13T13:31:33;10.30;;;6.50;;
74245;SDS011;62601;51.044;13.788;2023-10-13T13:33:53;7.47;;;6.00;;
74245;SDS011;62601;51.044;13.788;2023-10-13T13:36:13;10.93;;;6.97;;
74245;SDS011;62601;51.044;13.788;2023-10-13T13:38:33;11.13;;;6.10;;
74245;SDS011;62601;51.044;13.788;2023-10-13T13:40:54;12.57;;;6.17;;
74245;SDS011;62601;51.044;13.788;2023-10-13T13:43:14;8.13;;;6.57;;
74245;SDS011;62601;51.044;13.788;2023-10-13T13:45:34;9.47;;;7.13;;
74245;SDS011;62601;51.044;13.788;2023-10-13T13:47:54;7.60;;;6.17;;
74245;SDS011;62601;51.044;13.788;2023-10-13T13:50:15;8.13;;;5.90;;
74245;SDS011;62601;51.044;13.788;2023-10-13T13:52:35;9.20;;;5.60;;
74245;SDS011;62601;51.044;13.788;2023-10-13T13:54:55;8.50;;;5.63;;
74245;SDS011;62601;51.044;13.788;2023-10-13T13:57:15;10.70;;;6.53;;